Time;durP1;ratioP1;P1;durP2;ratioP2;P2;SDS_P1;SDS_P2;PMS_P1;PMS_P2;Temp;Humidity;BMP_temperature;BMP_pressure;BME280_temperature;BME280_humidity;BME280_pressure;Samples;Min_cycle;Max_cycle;Signal;HPM_P1;HPM_P2
2023/05/18 00:02:00;;;;;;;6.95;1.90;;;8.40;62.00;;;;;;5025066;28;20037;-69
2023/05/18 00:04:27;;;;;;;10.15;2.45;;;8.40;62.00;;;;;;5014954;28;20034;-68
2023/05/18 00:06:55;;;;;;;7.13;2.22;;;8.30;61.80;;;;;;5024265;28;20046;-68
2023/05/18 00:09:32;;;;;;;9.57;2.30;;;8.30;62.10;;;;;;5018791;28;20308;-69
2023/05/18 00:11:58;;;;;;;7.43;2.55;;;8.40;62.40;;;;;;5024020;28;20128;-69
2023/05/18 00:14:24;;;;;;;6.95;2.75;;;8.30;62.40;;;;;;4997950;28;20044;-69
2023/05/18 00:16:52;;;;;;;6.18;2.40;;;8.30;62.60;;;;;;5023563;28;20557;-68
2023/05/18 00:19:19;;;;;;;4.85;2.08;;;8.30;62.80;;;;;;5017698;28;20052;-68
2023/05/18 00:21:45;;;;;;;7.43;2.40;;;8.30;62.90;;;;;;5017734;28;20038;-69
2023/05/18 00:24:12;;;;;;;5.00;2.30;;;8.30;63.10;;;;;;5011133;28;20084;-69
2023/05/18 00:26:43;;;;;;;8.52;2.38;;;8.30;63.40;;;;;;4994981;28;20045;-68
2023/05/18 00:29:09;;;;;;;5.07;2.10;;;8.30;63.50;;;;;;5016763;28;20034;-69
2023/05/18 00:31:37;;;;;;;4.22;2.00;;;8.30;63.70;;;;;;5023316;28;20041;-68
2023/05/18 00:34:07;;;;;;;6.82;2.65;;;8.30;63.90;;;;;;5012970;28;20045;-68
2023/05/18 00:36:32;;;;;;;9.40;2.42;;;8.30;64.20;;;;;;5010541;28;20069;-69
2023/05/18 00:38:59;;;;;;;7.35;2.38;;;8.30;64.40;;;;;;5011352;28;20084;-69
2023/05/18 00:41:25;;;;;;;4.50;2.58;;;8.30;64.70;;;;;;5011210;28;20054;-68
2023/05/18 00:43:55;;;;;;;7.65;2.75;;;8.30;64.30;;;;;;5009398;28;20053;-69
2023/05/18 00:46:25;;;;;;;4.53;2.23;;;8.20;64.60;;;;;;5007335;28;20581;-68
2023/05/18 00:48:51;;;;;;;7.53;3.35;;;8.30;64.60;;;;;;5025691;28;20037;-69
2023/05/18 00:51:18;;;;;;;9.50;2.70;;;8.20;65.20;;;;;;5025029;28;20485;-69
2023/05/18 00:53:45;;;;;;;10.07;3.13;;;8.20;65.50;;;;;;5012377;28;20067;-68
2023/05/18 00:56:11;;;;;;;6.45;2.72;;;8.20;65.80;;;;;;5020248;28;20076;-69
2023/05/18 00:58:40;;;;;;;7.05;2.50;;;8.10;66.10;;;;;;5024685;28;20034;-69
2023/05/18 01:01:08;;;;;;;5.70;2.72;;;8.00;66.50;;;;;;5002400;28;20045;-69
2023/05/18 01:03:36;;;;;;;8.38;2.50;;;7.90;66.50;;;;;;5010758;28;20120;-68
2023/05/18 01:06:06;;;;;;;4.50;2.50;;;7.90;66.60;;;;;;5023172;28;20392;-69
2023/05/18 01:08:32;;;;;;;8.05;2.80;;;7.90;66.80;;;;;;5005995;28;20041;-69
2023/05/18 01:11:10;;;;;;;8.90;2.65;;;7.90;67.10;;;;;;5021923;28;20056;-69
2023/05/18 01:14:18;;;;;;;8.95;2.60;;;7.80;67.50;;;;;;5002285;28;20111;-69
2023/05/18 01:17:04;;;;;;;7.68;3.00;;;7.80;68.40;;;;;;5017801;28;20724;-69
2023/05/18 01:19:51;;;;;;;8.52;2.80;;;7.80;68.20;;;;;;5013159;28;20112;-69
2023/05/18 01:22:28;;;;;;;7.53;2.35;;;7.80;68.90;;;;;;5015834;28;20128;-68
2023/05/18 01:25:03;;;;;;;9.00;2.80;;;7.80;68.20;;;;;;5021722;28;20405;-69
2023/05/18 01:27:36;;;;;;;5.57;2.65;;;7.80;68.50;;;;;;5020813;28;20057;-68
2023/05/18 01:30:03;;;;;;;8.88;2.75;;;7.80;68.00;;;;;;5014945;28;20532;-69
2023/05/18 01:32:29;;;;;;;6.55;2.65;;;7.70;67.90;;;;;;5019890;28;20099;-68
2023/05/18 01:34:55;;;;;;;9.60;2.58;;;7.80;67.90;;;;;;5004863;28;20045;-68
2023/05/18 01:37:20;;;;;;;5.75;2.47;;;7.80;67.40;;;;;;5016793;28;20048;-69
2023/05/18 01:39:46;;;;;;;7.65;2.30;;;7.70;67.40;;;;;;5018551;28;20034;-68
2023/05/18 01:42:23;;;;;;;6.40;2.20;;;7.80;67.50;;;;;;5013712;28;20049;-68
2023/05/18 01:44:57;;;;;;;6.53;2.33;;;7.80;67.70;;;;;;5009853;28;20042;-69
2023/05/18 01:47:24;;;;;;;7.50;2.72;;;7.70;67.70;;;;;;5015565;28;20049;-69
2023/05/18 01:49:55;;;;;;;8.52;2.50;;;7.80;68.00;;;;;;5012865;28;20180;-68
2023/05/18 01:52:36;;;;;;;5.03;2.20;;;7.80;67.40;;;;;;5019890;28;20077;-69
2023/05/18 01:55:03;;;;;;;8.05;2.58;;;7.80;67.10;;;;;;5028021;28;20037;-69
2023/05/18 01:57:31;;;;;;;5.53;2.42;;;7.80;67.30;;;;;;5016536;28;20389;-68
2023/05/18 02:00:02;;;;;;;10.48;2.67;;;7.80;67.60;;;;;;5014002;28;20077;-68
2023/05/18 02:02:28;;;;;;;8.55;2.40;;;7.80;67.60;;;;;;5013056;28;20049;-68
2023/05/18 02:04:54;;;;;;;6.88;2.47;;;7.80;67.90;;;;;;5018299;28;20029;-68
2023/05/18 02:07:19;;;;;;;6.70;2.58;;;7.80;68.00;;;;;;5015478;28;20053;-68
2023/05/18 02:09:45;;;;;;;8.80;2.55;;;7.80;68.20;;;;;;5016723;28;20038;-69
2023/05/18 02:12:10;;;;;;;7.38;2.65;;;7.80;67.80;;;;;;5022398;28;20034;-68
2023/05/18 02:14:36;;;;;;;7.88;2.10;;;7.80;67.50;;;;;;5025702;28;20037;-68
2023/05/18 02:17:02;;;;;;;6.78;2.22;;;7.70;67.30;;;;;;5018084;28;20037;-68
2023/05/18 02:19:29;;;;;;;8.25;2.20;;;7.80;67.30;;;;;;5026589;28;20397;-67
2023/05/18 02:21:56;;;;;;;11.05;2.20;;;7.80;67.50;;;;;;5021718;28;20038;-68
2023/05/18 02:24:23;;;;;;;7.82;2.33;;;7.80;67.60;;;;;;5019344;28;20037;-69
2023/05/18 02:26:50;;;;;;;6.38;2.33;;;7.90;67.70;;;;;;5029778;28;20029;-68
2023/05/18 02:29:15;;;;;;;8.02;2.47;;;7.80;67.50;;;;;;5025796;28;20039;-68
2023/05/18 02:31:41;;;;;;;5.93;2.40;;;7.80;67.90;;;;;;5024714;28;20091;-69
2023/05/18 02:34:07;;;;;;;6.38;2.40;;;7.70;67.90;;;;;;5022342;28;20107;-68
2023/05/18 02:36:38;;;;;;;5.40;1.70;;;7.70;68.00;;;;;;5011320;28;20044;-68
2023/05/18 02:39:05;;;;;;;5.55;2.25;;;7.60;68.00;;;;;;5022883;28;22832;-68
2023/05/18 02:41:32;;;;;;;5.57;2.28;;;7.70;68.00;;;;;;5029876;28;20132;-69
2023/05/18 02:43:57;;;;;;;6.50;2.20;;;7.60;68.00;;;;;;5024806;28;20045;-68
2023/05/18 02:46:23;;;;;;;7.22;2.42;;;7.60;68.10;;;;;;5020586;28;20037;-68
2023/05/18 02:48:49;;;;;;;3.70;1.77;;;7.60;68.00;;;;;;5028046;28;20048;-68
2023/05/18 02:51:14;;;;;;;7.35;2.17;;;7.60;67.70;;;;;;4987021;28;20046;-68
2023/05/18 02:53:42;;;;;;;5.53;1.88;;;7.70;67.80;;;;;;5013133;28;20571;-69
2023/05/18 02:56:09;;;;;;;7.32;2.30;;;7.60;67.50;;;;;;5023686;28;20473;-69
2023/05/18 02:58:34;;;;;;;6.03;2.13;;;7.60;67.70;;;;;;5023176;28;20044;-69
2023/05/18 03:01:02;;;;;;;5.55;2.40;;;7.60;68.20;;;;;;5027639;28;20405;-68
2023/05/18 03:03:28;;;;;;;5.88;2.40;;;7.60;68.10;;;;;;5014066;28;20038;-68
2023/05/18 03:05:54;;;;;;;6.30;2.35;;;7.50;68.10;;;;;;5023405;28;20037;-68
2023/05/18 03:08:21;;;;;;;8.50;2.05;;;7.50;68.30;;;;;;5023144;28;20107;-68
2023/05/18 03:10:47;;;;;;;8.25;2.22;;;7.50;68.40;;;;;;5021582;28;20381;-68
2023/05/18 03:13:13;;;;;;;4.57;1.88;;;7.50;68.70;;;;;;5025312;28;20076;-68
2023/05/18 03:15:39;;;;;;;7.22;2.20;;;7.50;68.80;;;;;;5021518;28;20042;-68
2023/05/18 03:18:05;;;;;;;6.03;1.90;;;7.40;68.80;;;;;;5026978;28;20041;-69
2023/05/18 03:20:30;;;;;;;7.20;2.33;;;7.40;69.10;;;;;;5025170;28;20037;-68
2023/05/18 03:22:56;;;;;;;4.82;2.33;;;7.40;69.70;;;;;;5010296;28;20041;-68
2023/05/18 03:25:24;;;;;;;8.13;2.10;;;7.50;69.50;;;;;;5008401;28;20476;-68
2023/05/18 03:27:51;;;;;;;7.00;1.88;;;7.50;69.50;;;;;;5012883;28;20666;-68
2023/05/18 03:30:18;;;;;;;4.25;1.90;;;7.50;69.60;;;;;;5021758;28;20037;-68
2023/05/18 03:32:46;;;;;;;4.40;1.80;;;7.40;69.80;;;;;;5008927;28;20041;-68
2023/05/18 03:35:11;;;;;;;6.05;1.77;;;7.50;69.80;;;;;;5015491;28;20072;-68
2023/05/18 03:37:37;;;;;;;5.43;2.03;;;7.50;69.60;;;;;;5019702;28;20124;-68
2023/05/18 03:40:13;;;;;;;6.00;2.08;;;7.50;69.60;;;;;;5010602;28;20041;-68
2023/05/18 03:42:40;;;;;;;5.18;2.13;;;7.50;70.00;;;;;;5024559;28;20075;-68
2023/05/18 03:45:09;;;;;;;4.43;2.05;;;7.50;69.60;;;;;;5010981;28;20167;-69
2023/05/18 03:47:35;;;;;;;10.20;2.37;;;7.50;69.90;;;;;;5030551;28;20187;-67
2023/05/18 03:50:02;;;;;;;7.07;2.35;;;7.60;69.80;;;;;;5011068;28;20367;-67
2023/05/18 03:52:28;;;;;;;5.70;2.15;;;7.60;69.70;;;;;;5015720;28;20049;-68
2023/05/18 03:54:55;;;;;;;5.60;2.00;;;7.60;69.80;;;;;;5019330;28;20087;-69
2023/05/18 03:57:20;;;;;;;11.73;2.33;;;7.60;69.70;;;;;;5020048;28;20033;-68
2023/05/18 03:59:46;;;;;;;4.80;2.15;;;7.50;69.50;;;;;;5010950;28;20033;-69
2023/05/18 04:02:12;;;;;;;7.10;2.28;;;7.60;70.40;;;;;;5018531;28;20034;-68
2023/05/18 04:04:44;;;;;;;5.00;1.88;;;7.60;70.40;;;;;;5014358;28;20036;-69
2023/05/18 04:07:11;;;;;;;8.93;2.22;;;7.60;70.30;;;;;;4993293;28;20041;-68
2023/05/18 04:09:37;;;;;;;8.68;2.97;;;7.60;70.60;;;;;;5014090;28;20174;-69
2023/05/18 04:12:03;;;;;;;5.03;2.13;;;7.70;70.80;;;;;;5023401;28;20132;-69
2023/05/18 04:14:31;;;;;;;4.57;1.65;;;7.70;70.70;;;;;;5014498;28;22762;-69
2023/05/18 04:17:03;;;;;;;6.18;2.05;;;7.80;70.30;;;;;;5027288;28;20052;-69
2023/05/18 04:19:32;;;;;;;8.23;2.15;;;7.80;70.10;;;;;;5013879;28;20038;-68
2023/05/18 04:21:58;;;;;;;5.65;1.70;;;7.80;70.10;;;;;;5025798;28;20047;-68
2023/05/18 04:24:25;;;;;;;4.88;2.00;;;7.80;70.20;;;;;;5009447;28;20473;-68
2023/05/18 04:26:51;;;;;;;6.22;2.30;;;7.90;70.20;;;;;;5028015;28;20455;-68
2023/05/18 04:29:17;;;;;;;5.05;2.30;;;7.90;70.10;;;;;;5008245;28;20425;-68
2023/05/18 04:31:46;;;;;;;7.10;2.50;;;7.90;69.80;;;;;;5024162;28;20049;-68
2023/05/18 04:34:12;;;;;;;6.72;2.13;;;7.90;69.60;;;;;;5021426;28;20050;-69
2023/05/18 04:36:39;;;;;;;5.22;2.13;;;7.90;69.50;;;;;;5022836;28;20037;-70
2023/05/18 04:39:06;;;;;;;10.80;2.10;;;7.90;69.30;;;;;;5020142;28;20040;-69
2023/05/18 04:41:33;;;;;;;8.63;2.22;;;8.00;69.00;;;;;;5021123;28;20058;-69
2023/05/18 04:43:59;;;;;;;6.70;1.98;;;8.00;68.70;;;;;;5014463;28;20100;-70
2023/05/18 04:46:25;;;;;;;6.80;2.15;;;8.00;68.60;;;;;;5017249;28;20052;-69
2023/05/18 04:48:52;;;;;;;8.40;2.55;;;8.10;68.60;;;;;;5012433;28;20046;-69
2023/05/18 04:51:20;;;;;;;7.00;2.50;;;8.10;68.30;;;;;;5026428;28;20504;-69
2023/05/18 04:53:49;;;;;;;5.53;2.05;;;8.10;68.10;;;;;;5037876;28;20678;-69
2023/05/18 04:56:16;;;;;;;7.57;2.63;;;8.20;68.20;;;;;;5019538;28;20046;-69
2023/05/18 04:58:44;;;;;;;7.15;1.92;;;8.30;68.20;;;;;;5023788;28;20144;-70
2023/05/18 05:01:11;;;;;;;6.82;2.00;;;8.30;67.60;;;;;;5010852;28;20038;-69
2023/05/18 05:03:37;;;;;;;7.25;1.77;;;8.30;67.10;;;;;;5018624;28;20535;-69
2023/05/18 05:06:03;;;;;;;6.82;1.98;;;8.40;66.70;;;;;;5008419;28;20057;-68
2023/05/18 05:08:28;;;;;;;7.82;1.67;;;8.40;66.30;;;;;;5023308;28;20038;-68
2023/05/18 05:10:54;;;;;;;4.07;1.40;;;8.50;65.80;;;;;;5027692;28;20500;-70
2023/05/18 05:13:19;;;;;;;5.43;1.52;;;8.50;65.50;;;;;;5024708;28;20440;-69
2023/05/18 05:15:45;;;;;;;9.52;2.10;;;8.50;65.40;;;;;;5017037;28;20378;-69
2023/05/18 05:18:10;;;;;;;5.97;1.90;;;8.60;65.10;;;;;;5013514;28;20029;-69
2023/05/18 05:20:36;;;;;;;6.72;1.80;;;8.60;65.10;;;;;;5006690;28;20034;-69
2023/05/18 05:23:01;;;;;;;8.68;2.15;;;8.70;65.00;;;;;;5021913;28;20046;-69
2023/05/18 05:25:27;;;;;;;3.80;1.52;;;8.80;65.00;;;;;;5016925;28;20124;-69
2023/05/18 05:27:52;;;;;;;6.93;2.00;;;8.70;63.60;;;;;;5017685;28;20517;-68
2023/05/18 05:30:18;;;;;;;8.30;2.40;;;8.70;63.10;;;;;;5020555;28;20045;-69
2023/05/18 05:32:44;;;;;;;7.30;2.17;;;8.70;62.90;;;;;;5016159;28;20050;-68
2023/05/18 05:35:09;;;;;;;7.43;1.85;;;8.70;62.90;;;;;;5014458;28;20048;-68
2023/05/18 05:37:35;;;;;;;6.30;1.77;;;8.80;62.40;;;;;;5018318;28;20482;-68
2023/05/18 05:40:00;;;;;;;5.93;1.80;;;8.70;62.30;;;;;;5023879;28;20038;-68
2023/05/18 05:42:26;;;;;;;6.25;1.92;;;8.90;62.50;;;;;;5046306;28;20481;-68
2023/05/18 05:44:52;;;;;;;6.15;1.80;;;8.90;62.40;;;;;;5000277;28;20106;-69
2023/05/18 05:47:17;;;;;;;6.07;1.88;;;9.00;62.00;;;;;;5025748;28;20041;-68
2023/05/18 05:49:43;;;;;;;4.50;1.60;;;9.10;62.00;;;;;;5016636;28;20057;-71
2023/05/18 05:52:08;;;;;;;8.05;2.00;;;9.10;61.30;;;;;;5011285;28;20034;-68
2023/05/18 05:54:34;;;;;;;7.78;1.63;;;9.10;60.80;;;;;;5017801;28;20044;-68
2023/05/18 05:56:59;;;;;;;6.68;1.58;;;9.10;60.60;;;;;;5018555;28;20037;-69
2023/05/18 05:59:25;;;;;;;5.47;1.92;;;9.20;60.30;;;;;;5020473;28;20088;-68
2023/05/18 06:01:50;;;;;;;5.53;1.40;;;9.30;60.10;;;;;;5012328;28;20390;-69
2023/05/18 06:04:16;;;;;;;4.03;1.67;;;9.30;60.10;;;;;;5009748;28;20045;-69
2023/05/18 06:06:44;;;;;;;7.68;1.63;;;9.40;60.30;;;;;;5018258;28;20046;-69
2023/05/18 06:09:10;;;;;;;5.22;1.58;;;9.60;60.20;;;;;;5028817;28;20041;-69
2023/05/18 06:11:36;;;;;;;5.20;1.80;;;9.60;59.40;;;;;;5025730;28;20063;-68
2023/05/18 06:14:01;;;;;;;6.40;1.85;;;9.60;59.30;;;;;;5027546;28;20063;-69
2023/05/18 06:16:27;;;;;;;3.60;1.83;;;9.60;59.00;;;;;;5023301;28;20038;-68
2023/05/18 06:18:52;;;;;;;6.07;1.92;;;9.60;58.50;;;;;;5026863;28;20045;-68
2023/05/18 06:21:18;;;;;;;8.40;1.80;;;9.70;58.50;;;;;;5014371;28;20053;-68
2023/05/18 06:23:43;;;;;;;3.28;1.67;;;9.80;58.50;;;;;;5022508;28;20507;-67
2023/05/18 06:26:09;;;;;;;5.38;1.80;;;9.90;58.60;;;;;;5025642;28;20045;-68
2023/05/18 06:28:35;;;;;;;6.70;1.60;;;10.10;58.20;;;;;;5028394;28;20136;-69
2023/05/18 06:31:01;;;;;;;4.43;1.45;;;10.20;58.10;;;;;;5026574;28;20045;-69
2023/05/18 06:33:27;;;;;;;4.13;1.48;;;10.40;58.00;;;;;;5017114;28;20474;-67
2023/05/18 06:35:53;;;;;;;5.47;1.85;;;10.50;57.60;;;;;;5016502;28;20130;-69
2023/05/18 06:38:18;;;;;;;4.68;1.48;;;10.70;57.10;;;;;;5010947;28;20229;-69
2023/05/18 06:40:44;;;;;;;4.65;1.90;;;10.70;56.00;;;;;;5012327;28;20050;-68
2023/05/18 06:43:10;;;;;;;8.70;1.58;;;10.60;55.90;;;;;;5022751;28;20107;-68
2023/05/18 06:45:35;;;;;;;7.68;1.92;;;10.80;55.50;;;;;;5015983;28;20065;-68
2023/05/18 06:48:01;;;;;;;4.55;1.80;;;10.90;55.80;;;;;;5018420;28;20060;-68
2023/05/18 06:50:26;;;;;;;4.32;1.52;;;10.90;55.00;;;;;;5016775;28;20508;-68
2023/05/18 06:52:52;;;;;;;7.72;1.50;;;11.00;54.30;;;;;;5015726;28;20041;-68
2023/05/18 06:55:17;;;;;;;5.45;1.77;;;11.00;53.70;;;;;;5010332;28;20452;-67
2023/05/18 06:57:43;;;;;;;6.40;1.45;;;11.20;53.60;;;;;;5006870;28;21141;-67
2023/05/18 07:00:11;;;;;;;5.45;1.67;;;11.10;53.60;;;;;;5011687;28;20081;-68
2023/05/18 07:02:37;;;;;;;3.40;1.70;;;11.20;53.70;;;;;;5013807;28;20160;-68
2023/05/18 07:05:05;;;;;;;5.13;1.70;;;11.50;53.50;;;;;;5010102;28;20046;-68
2023/05/18 07:07:31;;;;;;;7.20;1.80;;;11.70;52.80;;;;;;5016493;28;20060;-68
2023/05/18 07:09:57;;;;;;;4.85;1.65;;;11.70;52.60;;;;;;5019049;28;20046;-68
2023/05/18 07:12:25;;;;;;;6.38;1.63;;;11.80;51.90;;;;;;5022931;28;20041;-70
2023/05/18 07:14:50;;;;;;;6.88;1.60;;;11.90;51.80;;;;;;5030087;28;20060;-67
2023/05/18 07:17:17;;;;;;;7.00;2.15;;;11.80;51.30;;;;;;5016973;28;20037;-68
2023/05/18 07:19:43;;;;;;;7.60;2.20;;;11.90;51.50;;;;;;5011486;28;20030;-68
2023/05/18 07:22:08;;;;;;;3.97;1.60;;;11.80;51.70;;;;;;5011130;28;20462;-67
2023/05/18 07:24:34;;;;;;;5.07;1.83;;;11.90;51.40;;;;;;5013654;28;20026;-67
2023/05/18 07:27:00;;;;;;;5.95;1.90;;;12.00;52.00;;;;;;5008451;28;20040;-68
2023/05/18 07:29:26;;;;;;;7.25;1.58;;;12.30;51.60;;;;;;5011162;28;20591;-69
2023/05/18 07:31:51;;;;;;;6.20;2.20;;;12.30;50.90;;;;;;5011073;28;20041;-68
2023/05/18 07:34:17;;;;;;;6.20;1.65;;;12.10;50.40;;;;;;5010953;28;20044;-68
2023/05/18 07:36:42;;;;;;;7.32;2.13;;;11.80;50.30;;;;;;5016581;28;20038;-67
2023/05/18 07:39:16;;;;;;;6.25;1.67;;;11.80;50.60;;;;;;5020227;28;20109;-68
2023/05/18 07:41:41;;;;;;;6.35;1.60;;;11.80;50.80;;;;;;5010408;28;20410;-68
2023/05/18 07:44:07;;;;;;;5.65;1.55;;;11.80;50.60;;;;;;5016582;28;20060;-67
2023/05/18 07:46:32;;;;;;;5.82;1.60;;;11.80;50.90;;;;;;5010227;28;20442;-69
2023/05/18 07:48:59;;;;;;;5.03;1.58;;;12.10;51.00;;;;;;5008050;28;20595;-67
2023/05/18 07:51:25;;;;;;;7.32;1.70;;;12.30;51.00;;;;;;5019708;28;20038;-68
2023/05/18 07:53:50;;;;;;;3.95;1.60;;;12.40;50.90;;;;;;5016621;28;20033;-69
2023/05/18 07:56:16;;;;;;;7.55;1.70;;;12.70;50.40;;;;;;5015662;28;20045;-67
2023/05/18 07:58:43;;;;;;;5.30;1.55;;;12.20;50.30;;;;;;5030387;28;20073;-68
2023/05/18 08:01:08;;;;;;;5.63;1.60;;;12.30;50.00;;;;;;5018707;28;20034;-67
2023/05/18 08:03:34;;;;;;;5.88;1.92;;;12.30;50.10;;;;;;5014779;28;20551;-67
2023/05/18 08:06:00;;;;;;;5.35;1.42;;;12.10;50.00;;;;;;5010480;28;20065;-70
2023/05/18 08:08:26;;;;;;;5.28;1.45;;;12.10;49.70;;;;;;5010915;28;20473;-69
2023/05/18 08:10:52;;;;;;;5.78;1.58;;;12.10;49.50;;;;;;5010271;28;20103;-67
2023/05/18 08:13:18;;;;;;;5.18;1.40;;;12.40;49.90;;;;;;5007902;28;20048;-68
2023/05/18 08:15:43;;;;;;;7.38;2.10;;;12.60;47.90;;;;;;5027634;28;20033;-67
2023/05/18 08:18:09;;;;;;;7.97;1.63;;;12.60;48.40;;;;;;5025018;28;20080;-67
2023/05/18 08:20:34;;;;;;;8.32;1.65;;;12.90;48.80;;;;;;5018555;28;20076;-67
2023/05/18 08:23:00;;;;;;;4.97;1.48;;;13.20;48.20;;;;;;5008838;28;20054;-68
2023/05/18 08:25:25;;;;;;;6.35;1.45;;;13.30;47.60;;;;;;5012352;28;20103;-67
2023/05/18 08:27:52;;;;;;;8.38;2.00;;;13.40;47.70;;;;;;5007113;28;20501;-69
2023/05/18 08:30:20;;;;;;;5.65;1.70;;;14.00;46.80;;;;;;5011525;28;20042;-70
2023/05/18 08:32:46;;;;;;;4.93;1.50;;;14.20;46.40;;;;;;5008413;28;20502;-68
2023/05/18 08:35:12;;;;;;;7.25;1.60;;;14.40;45.90;;;;;;5015152;28;20160;-68
2023/05/18 08:37:38;;;;;;;2.88;1.58;;;14.80;46.00;;;;;;5023665;28;20116;-67
2023/05/18 08:40:06;;;;;;;4.70;1.60;;;14.90;45.70;;;;;;5014291;28;20072;-67
2023/05/18 08:42:50;;;;;;;6.18;1.85;;;15.30;45.20;;;;;;5011520;28;20071;-67
2023/05/18 08:45:29;;;;;;;7.68;1.42;;;15.60;44.20;;;;;;5012510;28;20045;-68
2023/05/18 08:47:58;;;;;;;13.80;2.35;;;15.90;43.80;;;;;;5024417;28;20135;-69
2023/05/18 08:50:25;;;;;;;16.67;2.75;;;16.10;43.80;;;;;;5010453;28;20042;-68
2023/05/18 08:52:54;;;;;;;4.13;1.80;;;16.60;44.10;;;;;;5009457;28;20041;-68
2023/05/18 08:55:21;;;;;;;4.25;1.45;;;17.10;42.30;;;;;;5011605;28;20030;-70
2023/05/18 08:57:54;;;;;;;4.47;1.70;;;17.20;41.60;;;;;;5014764;28;20370;-68
2023/05/18 09:00:21;;;;;;;4.00;1.42;;;17.50;40.60;;;;;;5012282;28;20160;-69
2023/05/18 09:02:47;;;;;;;6.85;1.50;;;17.80;40.10;;;;;;5017772;28;20477;-69
2023/05/18 09:05:14;;;;;;;5.57;1.73;;;17.90;40.70;;;;;;5009824;28;20038;-67
2023/05/18 09:07:41;;;;;;;3.33;1.20;;;18.20;40.30;;;;;;5026543;28;20052;-67
2023/05/18 09:10:10;;;;;;;3.85;1.45;;;18.10;39.50;;;;;;5031839;28;20041;-69
2023/05/18 09:12:36;;;;;;;5.15;1.35;;;18.40;38.50;;;;;;5024458;28;20477;-69
2023/05/18 09:15:03;;;;;;;4.57;1.45;;;18.20;38.50;;;;;;5027042;28;20179;-68
2023/05/18 09:17:28;;;;;;;3.58;1.55;;;18.50;37.00;;;;;;5029530;28;20040;-68
2023/05/18 09:19:54;;;;;;;5.53;1.75;;;18.10;37.60;;;;;;5014824;28;20041;-68
2023/05/18 09:22:20;;;;;;;3.50;1.75;;;17.90;38.10;;;;;;5009947;28;20053;-68
2023/05/18 09:24:47;;;;;;;5.93;1.65;;;18.40;37.20;;;;;;5019894;28;20038;-68
2023/05/18 09:27:13;;;;;;;4.68;1.50;;;19.10;36.10;;;;;;5019932;28;20492;-68
2023/05/18 09:29:52;;;;;;;2.83;1.30;;;18.70;35.90;;;;;;5028669;28;20034;-66
2023/05/18 09:32:17;;;;;;;5.57;1.90;;;18.70;34.00;;;;;;5025542;28;20044;-68
2023/05/18 09:34:44;;;;;;;4.72;1.75;;;18.50;36.40;;;;;;5027796;28;20034;-67
2023/05/18 09:37:10;;;;;;;7.10;1.88;;;18.30;36.40;;;;;;5011455;28;20042;-69
2023/05/18 09:39:36;;;;;;;9.98;1.90;;;18.40;36.20;;;;;;5021449;28;20432;-68
2023/05/18 09:42:03;;;;;;;6.57;1.65;;;18.00;36.20;;;;;;5013845;28;20551;-70
2023/05/18 09:44:33;;;;;;;6.45;1.67;;;18.00;35.60;;;;;;5020096;28;20057;-69
2023/05/18 09:46:59;;;;;;;6.53;2.33;;;17.40;36.00;;;;;;5010078;28;20042;-68
2023/05/18 09:49:28;;;;;;;5.00;1.65;;;17.40;37.30;;;;;;5011171;28;20494;-68
2023/05/18 09:51:55;;;;;;;4.25;1.48;;;17.40;36.90;;;;;;5019165;28;20072;-68
2023/05/18 09:54:21;;;;;;;8.43;2.05;;;17.10;37.90;;;;;;5022127;28;20103;-68
2023/05/18 09:56:48;;;;;;;7.13;1.92;;;17.30;38.00;;;;;;5011350;28;20038;-70
2023/05/18 09:59:15;;;;;;;4.07;2.10;;;17.40;37.40;;;;;;5011589;28;20046;-69
2023/05/18 10:02:00;;;;;;;6.90;1.83;;;17.40;36.90;;;;;;5012665;28;20034;-67
2023/05/18 10:04:39;;;;;;;5.68;1.50;;;17.30;36.00;;;;;;5007995;28;20042;-68
2023/05/18 10:07:15;;;;;;;6.88;2.40;;;17.00;36.60;;;;;;5022733;28;20038;-69
2023/05/18 10:09:42;;;;;;;6.78;1.80;;;17.30;36.60;;;;;;5011199;28;20064;-67
2023/05/18 10:12:16;;;;;;;5.63;1.88;;;17.80;36.60;;;;;;5020794;28;20049;-67
2023/05/18 10:14:43;;;;;;;4.00;1.73;;;18.60;35.40;;;;;;5019075;28;20034;-70
2023/05/18 10:17:14;;;;;;;9.13;2.08;;;19.20;35.00;;;;;;5023309;28;20045;-68
2023/05/18 10:19:40;;;;;;;4.50;1.83;;;19.80;32.40;;;;;;5030982;28;20614;-68
2023/05/18 10:22:08;;;;;;;5.75;1.60;;;19.80;33.20;;;;;;5030478;28;20480;-69
2023/05/18 10:24:41;;;;;;;4.28;1.77;;;20.10;33.60;;;;;;5025739;28;20048;-68
2023/05/18 10:27:09;;;;;;;3.72;1.67;;;20.70;32.40;;;;;;5031028;28;20457;-70
2023/05/18 10:29:36;;;;;;;5.60;1.92;;;20.70;31.80;;;;;;5028529;28;20489;-68
2023/05/18 10:32:03;;;;;;;4.63;1.65;;;20.20;32.40;;;;;;5029794;28;20063;-67
2023/05/18 10:34:30;;;;;;;6.13;1.90;;;20.00;33.30;;;;;;5025057;28;20049;-67
2023/05/18 10:36:56;;;;;;;6.93;2.40;;;19.40;33.90;;;;;;5033802;28;20037;-68
2023/05/18 10:39:22;;;;;;;8.05;2.15;;;19.20;34.20;;;;;;5032362;28;20477;-68
2023/05/18 10:41:50;;;;;;;3.83;1.67;;;19.40;34.90;;;;;;5030676;28;20056;-68
2023/05/18 10:44:16;;;;;;;5.68;1.85;;;18.90;35.20;;;;;;5022348;28;20029;-69
2023/05/18 10:46:42;;;;;;;3.85;1.98;;;18.80;35.00;;;;;;5029832;28;20124;-68
2023/05/18 10:49:13;;;;;;;3.97;1.80;;;18.60;35.50;;;;;;5002119;28;20132;-67
2023/05/18 10:51:43;;;;;;;5.75;1.75;;;18.60;34.80;;;;;;5024929;28;20046;-68
2023/05/18 10:54:12;;;;;;;7.15;2.13;;;18.00;35.80;;;;;;5012837;28;20509;-67
2023/05/18 10:56:46;;;;;;;11.77;2.22;;;17.50;35.90;;;;;;5027527;28;20048;-68
2023/05/18 10:59:12;;;;;;;7.32;2.15;;;17.60;36.50;;;;;;5031197;28;20463;-69
2023/05/18 11:01:40;;;;;;;5.53;2.10;;;17.40;36.50;;;;;;5022580;28;20465;-67
2023/05/18 11:04:06;;;;;;;5.10;2.10;;;16.90;36.40;;;;;;5028236;28;20041;-68
2023/05/18 11:06:33;;;;;;;5.75;2.67;;;16.40;36.80;;;;;;5027940;28;20409;-67
2023/05/18 11:09:00;;;;;;;5.07;1.90;;;16.50;37.10;;;;;;5027386;28;20426;-67
2023/05/18 11:11:28;;;;;;;6.47;2.92;;;16.50;37.90;;;;;;5024232;28;20076;-67
2023/05/18 11:14:00;;;;;;;6.07;2.03;;;16.70;38.20;;;;;;5029792;28;20073;-69
2023/05/18 11:16:34;;;;;;;7.07;2.05;;;17.00;38.90;;;;;;5030807;28;20524;-66
2023/05/18 11:19:05;;;;;;;5.82;2.35;;;17.10;37.60;;;;;;5031892;28;20095;-68
2023/05/18 11:21:50;;;;;;;6.90;2.20;;;16.40;37.40;;;;;;5027526;28;20103;-67
2023/05/18 11:24:30;;;;;;;12.82;3.60;;;16.20;38.50;;;;;;5016329;28;20063;-67
2023/05/18 11:27:20;;;;;;;6.15;2.20;;;16.20;37.80;;;;;;5012954;28;20420;-68
2023/05/18 11:29:48;;;;;;;4.15;1.90;;;16.10;38.70;;;;;;5025984;28;20053;-67
2023/05/18 11:32:26;;;;;;;9.73;2.20;;;16.60;38.70;;;;;;5023939;28;20041;-68
2023/05/18 11:34:53;;;;;;;8.55;2.00;;;17.00;39.00;;;;;;5027068;28;20049;-67
2023/05/18 11:37:37;;;;;;;21.42;2.85;;;17.20;38.40;;;;;;5031935;28;20041;-68
2023/05/18 11:40:09;;;;;;;20.50;3.53;;;17.50;38.80;;;;;;5025615;28;20048;-68
2023/05/18 11:42:35;;;;;;;7.55;1.80;;;17.50;37.30;;;;;;5025680;28;20037;-68
2023/05/18 11:45:11;;;;;;;6.28;2.20;;;17.40;37.40;;;;;;5024363;28;20041;-68
2023/05/18 11:47:41;;;;;;;5.10;2.17;;;17.50;38.10;;;;;;5025834;28;20056;-69
2023/05/18 11:50:10;;;;;;;5.40;2.00;;;17.00;38.20;;;;;;5031596;28;20088;-67
2023/05/18 11:52:46;;;;;;;16.17;2.70;;;17.30;38.30;;;;;;5025133;28;20048;-67
2023/05/18 11:55:13;;;;;;;7.18;2.45;;;17.00;38.30;;;;;;5029994;28;20311;-69
2023/05/18 11:57:41;;;;;;;7.35;2.05;;;17.00;38.50;;;;;;5028005;28;20116;-70
2023/05/18 12:00:09;;;;;;;6.50;2.58;;;17.20;38.70;;;;;;5017601;28;20050;-69
2023/05/18 12:02:35;;;;;;;9.52;2.67;;;17.30;37.80;;;;;;5023925;28;20077;-69
2023/05/18 12:05:05;;;;;;;7.93;2.20;;;17.10;38.00;;;;;;5029441;28;20121;-69
2023/05/18 12:07:32;;;;;;;7.38;2.10;;;17.10;37.80;;;;;;5019881;28;20043;-70
2023/05/18 12:10:10;;;;;;;6.28;2.10;;;17.00;38.10;;;;;;5029408;28;20124;-68
2023/05/18 12:12:35;;;;;;;8.63;2.10;;;17.00;37.40;;;;;;5028083;28;20117;-69
2023/05/18 12:15:09;;;;;;;4.22;1.80;;;17.10;37.90;;;;;;5030874;28;20465;-69
2023/05/18 12:17:39;;;;;;;7.03;1.90;;;17.60;38.00;;;;;;5029561;28;20125;-70
2023/05/18 12:20:15;;;;;;;5.78;1.88;;;17.70;38.20;;;;;;5031343;28;20092;-69
2023/05/18 12:22:42;;;;;;;3.88;1.98;;;17.60;37.40;;;;;;5019588;28;20077;-68
2023/05/18 12:25:09;;;;;;;29.10;4.78;;;17.90;36.40;;;;;;5030634;28;20043;-68
2023/05/18 12:27:39;;;;;;;5.90;1.63;;;19.50;35.90;;;;;;5025953;28;20034;-68
2023/05/18 12:30:11;;;;;;;6.00;1.50;;;21.40;33.50;;;;;;5029545;28;20408;-68
2023/05/18 12:32:37;;;;;;;4.07;1.70;;;23.00;30.80;;;;;;5024816;28;20175;-68
2023/05/18 12:35:04;;;;;;;4.65;1.63;;;24.60;28.20;;;;;;5029080;28;20133;-68
2023/05/18 12:37:30;;;;;;;6.30;1.80;;;25.60;27.30;;;;;;5029303;28;20095;-68
2023/05/18 12:39:55;;;;;;;5.13;1.67;;;26.50;26.40;;;;;;5024462;28;20497;-68
2023/05/18 12:42:21;;;;;;;4.72;1.63;;;26.80;25.70;;;;;;5023622;28;20073;-73
2023/05/18 12:44:48;;;;;;;4.85;1.95;;;25.60;24.80;;;;;;5024231;28;20045;-69
2023/05/18 12:47:14;;;;;;;6.30;1.45;;;25.80;25.70;;;;;;5025596;28;20519;-69
2023/05/18 12:49:42;;;;;;;4.30;1.70;;;25.40;25.20;;;;;;5022409;28;20041;-68
2023/05/18 12:52:12;;;;;;;7.35;1.65;;;25.70;24.90;;;;;;5019616;28;20041;-68
2023/05/18 12:54:54;;;;;;;5.25;1.70;;;26.30;24.70;;;;;;5021925;28;20037;-70